Time;durP1;ratioP1;P1;durP2;ratioP2;P2;SDS_P1;SDS_P2;PMS_P1;PMS_P2;Temp;Humidity;BMP_temperature;BMP_pressure;BME280_temperature;BME280_humidity;BME280_pressure;Samples;Min_cycle;Max_cycle;Signal;HPM_P1;HPM_P2
2022/07/04 00:00:26;;;;;;;1.30;1.20;;;18.40;1.40;;;19.24;100.00;95587.25;646672;216;31582;-78
2022/07/04 00:05:42;;;;;;;1.70;1.60;;;18.30;1.40;;;19.12;100.00;95595.63;648312;216;31519;-78
2022/07/04 00:08:27;;;;;;;1.02;0.93;;;18.40;1.40;;;19.20;100.00;95599.95;645108;216;31497;-77
2022/07/04 00:11:09;;;;;;;0.80;0.80;;;18.50;1.40;;;19.30;100.00;95599.02;646973;216;31504;-78
2022/07/04 00:13:51;;;;;;;1.00;0.90;;;18.80;1.40;;;19.33;100.00;95599.88;648881;212;32094;-77
2022/07/04 00:16:34;;;;;;;1.77;1.10;;;18.80;1.40;;;19.31;100.00;95596.20;645670;216;31935;-78
2022/07/04 00:19:17;;;;;;;1.20;1.20;;;18.90;1.40;;;19.25;100.00;95583.55;616656;224;32569;-78
2022/07/04 00:21:59;;;;;;;1.00;0.80;;;18.80;1.40;;;19.35;100.00;95577.14;622290;226;31930;-78
2022/07/04 00:24:41;;;;;;;1.30;1.10;;;18.90;1.40;;;19.29;100.00;95574.39;649048;216;31533;-78
2022/07/04 00:29:57;;;;;;;1.70;0.90;;;18.60;1.40;;;19.08;100.00;95566.64;649301;216;32092;-77
2022/07/04 00:32:39;;;;;;;1.23;0.93;;;18.50;1.40;;;19.05;100.00;95545.16;645954;216;31959;-78
2022/07/04 00:35:51;;;;;;;1.30;1.12;;;18.50;1.40;;;18.90;100.00;95517.18;618709;226;32086;-77
2022/07/04 00:38:33;;;;;;;1.30;1.20;;;18.40;1.40;;;18.88;100.00;95511.94;645758;216;31481;-79
2022/07/04 00:41:15;;;;;;;1.15;1.00;;;18.30;1.40;;;18.91;100.00;95566.55;645448;216;31507;-78
2022/07/04 00:44:04;;;;;;;0.93;0.88;;;18.10;1.40;;;18.69;100.00;95546.30;647208;212;42171;-77
2022/07/04 00:46:45;;;;;;;5.87;1.00;;;18.00;1.40;;;18.75;100.00;95574.98;645847;216;31500;-77
2022/07/04 00:49:27;;;;;;;1.20;1.10;;;18.10;1.40;;;18.78;100.00;95575.41;645979;216;31842;-77
2022/07/04 00:52:09;;;;;;;1.20;1.10;;;18.00;1.40;;;18.71;100.00;95566.25;650004;216;31525;-77
2022/07/04 00:54:51;;;;;;;3.00;1.00;;;18.00;1.40;;;18.74;100.00;95558.63;633518;217;32813;-77
2022/07/04 00:57:32;;;;;;;1.25;1.10;;;18.00;1.40;;;18.82;100.00;95547.22;645914;216;31611;-77
2022/07/04 01:00:14;;;;;;;1.37;1.27;;;18.10;1.40;;;18.84;100.00;95547.02;647898;212;31463;-76
2022/07/04 01:02:56;;;;;;;1.10;0.90;;;18.00;1.40;;;18.82;100.00;95553.23;640588;216;32090;-76
2022/07/04 01:05:38;;;;;;;1.20;1.05;;;17.90;1.40;;;18.66;100.00;95560.92;618705;226;32016;-76
2022/07/04 01:08:20;;;;;;;1.30;1.00;;;17.70;1.40;;;18.71;100.00;95563.28;647457;216;31535;-77
2022/07/04 01:11:02;;;;;;;1.00;0.70;;;17.70;1.40;;;18.71;100.00;95559.73;616169;228;31838;-76
2022/07/04 01:13:47;;;;;;;0.70;0.70;;;17.80;1.40;;;18.85;100.00;95561.31;620392;226;32331;-76
2022/07/04 01:16:28;;;;;;;1.60;1.10;;;17.90;1.40;;;18.95;100.00;95568.13;621092;226;31866;-77
2022/07/04 01:19:10;;;;;;;1.15;0.90;;;18.00;1.40;;;18.96;100.00;95569.03;647125;216;31466;-77
2022/07/04 01:21:52;;;;;;;1.23;1.10;;;18.00;1.40;;;19.01;100.00;95571.45;616297;230;31873;-76
2022/07/04 01:24:34;;;;;;;2.60;1.00;;;18.10;1.40;;;19.06;100.00;95565.81;646797;216;31636;-76
2022/07/04 01:27:16;;;;;;;0.93;0.82;;;18.20;1.40;;;19.08;100.00;95573.90;649029;216;31916;-77
2022/07/04 01:29:57;;;;;;;1.20;1.10;;;18.20;1.40;;;19.06;100.00;95564.29;645778;215;31502;-77
2022/07/04 01:32:42;;;;;;;4.75;1.30;;;18.00;1.40;;;19.00;100.00;95555.22;647825;212;31935;-77
2022/07/04 01:35:51;;;;;;;0.85;0.80;;;18.00;1.40;;;18.99;100.00;95549.36;647334;216;31617;-78
2022/07/04 01:38:33;;;;;;;2.00;1.20;;;17.90;1.40;;;18.95;100.00;95542.24;647405;212;31481;-78
2022/07/04 01:41:15;;;;;;;1.57;1.00;;;17.80;1.40;;;18.90;100.00;95536.34;647230;216;31578;-78
2022/07/04 01:44:03;;;;;;;1.17;1.00;;;17.70;1.40;;;18.83;100.00;95530.86;616501;226;33287;-81
2022/07/04 01:46:50;;;;;;;1.30;0.80;;;17.60;1.40;;;18.92;100.00;95525.38;644754;212;31538;-76
2022/07/04 01:49:32;;;;;;;0.70;0.60;;;17.50;1.40;;;18.86;100.00;95521.95;646562;216;31473;-77
2022/07/04 01:52:15;;;;;;;0.70;0.70;;;17.30;1.40;;;18.82;100.00;95515.03;619717;226;32021;-77
2022/07/04 01:54:56;;;;;;;2.90;0.90;;;17.20;1.40;;;18.75;100.00;95512.52;650632;216;31629;-77
2022/07/04 01:57:37;;;;;;;1.50;1.30;;;17.20;1.40;;;18.82;100.00;95518.66;648529;216;31483;-77
2022/07/04 02:03:09;;;;;;;1.10;1.00;;;17.30;1.40;;;18.76;100.00;95507.16;642391;215;42287;-77
2022/07/04 02:05:51;;;;;;;4.40;0.90;;;17.10;1.40;;;18.68;100.00;95505.09;645943;216;31576;-77
2022/07/04 02:11:20;;;;;;;2.20;0.80;;;17.10;1.40;;;18.58;100.00;95505.81;648894;216;31547;-76
2022/07/04 02:14:02;;;;;;;1.20;1.10;;;17.10;1.40;;;18.63;100.00;95502.16;646981;216;31728;-76
2022/07/04 02:19:21;;;;;;;0.70;0.62;;;17.70;1.40;;;18.97;100.00;95520.75;643766;216;31695;-76
2022/07/04 02:22:03;;;;;;;1.20;1.10;;;17.90;1.40;;;19.04;100.00;95522.11;621938;226;31829;-76
2022/07/04 02:24:45;;;;;;;1.50;1.00;;;17.80;1.40;;;19.13;100.00;95524.02;650455;216;42671;-77
2022/07/04 02:27:27;;;;;;;1.00;0.70;;;17.70;1.40;;;19.00;100.00;95514.61;647540;216;31478;-75
2022/07/04 02:30:09;;;;;;;1.00;0.80;;;17.50;1.40;;;18.91;100.00;95506.67;649003;216;31510;-77
2022/07/04 02:32:51;;;;;;;1.10;1.00;;;17.30;1.40;;;18.88;100.00;95504.07;621876;226;31906;-77
2022/07/04 02:35:51;;;;;;;1.37;1.27;;;17.10;1.40;;;18.68;100.00;95511.65;644189;216;32315;-77
2022/07/04 02:38:33;;;;;;;2.00;1.00;;;17.00;1.40;;;18.59;100.00;95518.17;646824;212;31498;-77
2022/07/04 02:41:15;;;;;;;0.80;0.67;;;16.80;1.40;;;18.48;100.00;95524.28;620682;226;31798;-77
2022/07/04 02:43:57;;;;;;;1.30;1.10;;;16.70;1.40;;;18.47;100.00;95523.95;647420;212;31517;-77
2022/07/04 02:46:38;;;;;;;0.88;0.88;;;16.70;1.40;;;18.39;100.00;95526.00;645811;212;31488;-77
2022/07/04 02:49:20;;;;;;;1.08;0.95;;;16.70;1.40;;;18.38;100.00;95525.34;647735;212;31495;-77
2022/07/04 02:52:02;;;;;;;1.02;0.93;;;16.70;1.40;;;18.25;100.00;95536.83;645647;216;31542;-76
2022/07/04 02:54:45;;;;;;;1.40;1.30;;;16.60;1.40;;;18.18;100.00;95536.33;648728;216;31537;-76
2022/07/04 02:57:25;;;;;;;0.90;0.70;;;16.50;1.40;;;18.11;100.00;95546.06;645387;216;31549;-76
2022/07/04 03:00:11;;;;;;;0.70;0.60;;;16.40;1.40;;;18.02;100.00;95551.09;647504;212;31548;-76
2022/07/04 03:02:54;;;;;;;1.90;1.37;;;16.40;1.40;;;18.09;100.00;95547.57;648606;212;31482;-76
2022/07/04 03:05:36;;;;;;;0.98;0.80;;;16.50;1.40;;;18.11;100.00;95548.56;647827;212;31480;-76
2022/07/04 03:08:17;;;;;;;1.20;1.08;;;16.50;1.40;;;18.10;100.00;95542.27;645016;212;31486;-76
2022/07/04 03:10:59;;;;;;;0.88;0.82;;;16.50;1.40;;;18.10;100.00;95534.36;632752;222;31681;-75
2022/07/04 03:13:41;;;;;;;1.05;0.88;;;16.40;1.40;;;17.97;100.00;95532.52;647593;216;31669;-77
2022/07/04 03:16:23;;;;;;;0.63;0.63;;;16.30;1.40;;;17.99;100.00;95529.80;648317;212;33469;-76
2022/07/04 03:19:04;;;;;;;2.00;0.75;;;16.20;1.40;;;17.99;100.00;95529.14;645926;216;31567;-75
2022/07/04 03:21:46;;;;;;;0.88;0.77;;;16.30;1.40;;;17.99;100.00;95541.66;649877;216;42199;-75
2022/07/04 03:24:28;;;;;;;1.10;1.00;;;16.30;1.40;;;18.00;100.00;95545.61;650202;216;31495;-75
2022/07/04 03:27:10;;;;;;;1.20;1.10;;;16.30;1.40;;;18.11;100.00;95546.47;647480;216;31515;-75
2022/07/04 03:29:51;;;;;;;1.40;1.30;;;16.50;1.40;;;18.12;100.00;95547.34;645276;216;42634;-76
2022/07/04 03:32:33;;;;;;;1.02;0.90;;;16.60;1.40;;;18.03;100.00;95548.17;646371;216;31812;-76
2022/07/04 03:35:51;;;;;;;1.33;0.90;;;16.50;1.40;;;17.96;100.00;95548.64;646298;212;31573;-75
2022/07/04 03:38:33;;;;;;;1.12;1.02;;;16.40;1.40;;;17.98;100.00;95545.44;620130;226;32457;-76
2022/07/04 03:41:18;;;;;;;1.58;0.82;;;16.40;1.40;;;18.15;100.00;95554.76;618784;226;31925;-77
2022/07/04 03:44:00;;;;;;;1.10;1.00;;;16.50;1.40;;;18.26;100.00;95560.02;645584;216;31993;-75
2022/07/04 03:46:47;;;;;;;1.40;0.90;;;16.60;1.40;;;18.39;100.00;95564.47;649436;216;42891;-76
2022/07/04 03:49:31;;;;;;;1.30;1.20;;;16.70;1.40;;;18.51;100.00;95570.63;647421;212;42472;-76
2022/07/04 03:52:13;;;;;;;1.73;0.98;;;16.80;1.40;;;18.56;100.00;95566.81;646915;216;31668;-76
2022/07/04 03:54:55;;;;;;;0.70;0.70;;;16.80;1.40;;;18.44;100.00;95576.99;646672;216;31576;-76
2022/07/04 03:57:39;;;;;;;0.85;0.80;;;16.80;1.40;;;18.59;100.00;95585.56;647757;216;31728;-76
2022/07/04 04:00:25;;;;;;;1.60;0.98;;;16.90;1.40;;;18.67;100.00;95591.00;620760;226;31934;-76
2022/07/04 04:05:44;;;;;;;4.10;0.90;;;17.00;1.40;;;18.74;100.00;95589.00;645336;216;31640;-76
2022/07/04 04:08:26;;;;;;;0.80;0.80;;;17.00;1.40;;;18.54;100.00;95593.38;647489;216;31493;-77
2022/07/04 04:11:08;;;;;;;0.82;0.80;;;16.90;1.40;;;18.70;100.00;95591.50;644376;212;31496;-76
2022/07/04 04:13:49;;;;;;;2.80;1.10;;;17.00;1.40;;;18.85;100.00;95598.61;646476;216;31532;-76
2022/07/04 04:16:31;;;;;;;1.08;0.98;;;17.20;1.40;;;18.97;100.00;95611.03;646245;216;31529;-75
2022/07/04 04:19:13;;;;;;;1.15;1.05;;;17.20;1.40;;;18.81;100.00;95606.35;647430;212;31530;-76
2022/07/04 04:21:57;;;;;;;0.95;0.88;;;17.10;1.40;;;18.75;100.00;95606.68;647617;216;31651;-76
2022/07/04 04:24:39;;;;;;;2.30;1.20;;;17.00;1.40;;;18.77;100.00;95609.86;646076;216;31458;-76
2022/07/04 04:27:24;;;;;;;1.00;0.90;;;17.00;1.40;;;19.01;100.00;95620.02;647905;216;31481;-76
2022/07/04 04:30:07;;;;;;;1.35;0.93;;;17.20;1.40;;;19.05;100.00;95621.02;647891;212;31480;-76
2022/07/04 04:32:49;;;;;;;3.50;0.80;;;17.20;1.40;;;19.11;100.00;95629.89;622405;226;31818;-77
2022/07/04 04:35:51;;;;;;;0.80;0.80;;;17.20;1.40;;;19.00;100.00;95628.39;646212;216;31340;-75
2022/07/04 04:38:39;;;;;;;1.00;0.70;;;17.30;1.40;;;19.08;100.00;95622.22;645921;216;31577;-77
2022/07/04 04:41:23;;;;;;;0.93;0.82;;;17.30;1.40;;;19.36;100.00;95625.52;643793;216;31976;-75
2022/07/04 04:44:05;;;;;;;0.80;0.70;;;17.50;1.40;;;19.51;100.00;95629.85;647885;212;31470;-76
2022/07/04 04:46:46;;;;;;;0.80;0.77;;;17.70;1.40;;;19.74;100.00;95634.14;645848;216;31681;-76
2022/07/04 04:49:34;;;;;;;1.50;1.30;;;17.90;1.40;;;19.33;100.00;95644.88;647521;216;31959;-77
2022/07/04 04:52:16;;;;;;;1.20;0.93;;;17.80;1.40;;;19.10;100.00;95651.45;645783;212;31568;-76
2022/07/04 04:54:57;;;;;;;1.25;1.15;;;17.70;1.40;;;19.00;100.00;95659.39;651336;216;31477;-76
2022/07/04 04:57:42;;;;;;;1.50;0.80;;;17.50;1.40;;;18.96;100.00;95667.02;646239;212;32821;-77
2022/07/04 05:00:30;;;;;;;1.50;1.30;;;17.40;1.40;;;18.85;100.00;95678.94;645576;216;31648;-76
2022/07/04 05:03:12;;;;;;;0.90;0.70;;;17.40;1.40;;;18.80;100.00;95686.95;646592;212;31550;-76
2022/07/04 05:05:59;;;;;;;2.30;1.10;;;17.40;1.40;;;18.63;100.00;95691.59;622716;226;31958;-77
2022/07/04 05:08:48;;;;;;;0.57;0.57;;;17.30;1.40;;;18.71;100.00;95694.06;646866;216;31541;-76
2022/07/04 05:11:35;;;;;;;1.70;1.00;;;17.30;1.40;;;18.65;100.00;95703.30;647427;212;31496;-76
2022/07/04 05:14:17;;;;;;;1.25;1.02;;;17.20;1.40;;;18.55;100.00;95697.84;648982;212;31519;-76
2022/07/04 05:16:58;;;;;;;2.20;1.10;;;17.00;1.40;;;18.60;100.00;95695.63;648406;216;31486;-76
2022/07/04 05:19:40;;;;;;;1.87;0.77;;;17.10;1.40;;;18.60;100.00;95698.56;647675;212;31570;-76
2022/07/04 05:24:56;;;;;;;0.80;0.73;;;17.10;1.40;;;18.70;100.00;95700.08;621312;226;31862;-76
2022/07/04 05:27:44;;;;;;;1.40;1.10;;;17.20;1.40;;;18.75;100.00;95698.45;645661;216;32361;-76
2022/07/04 05:30:32;;;;;;;1.10;0.95;;;17.30;1.40;;;18.70;100.00;95693.40;649809;216;31532;-71
2022/07/04 05:35:54;;;;;;;1.40;1.10;;;17.30;1.40;;;18.73;100.00;95693.08;644672;212;31718;-71
2022/07/04 05:38:36;;;;;;;1.15;1.05;;;17.50;1.40;;;18.78;100.00;95689.42;646707;212;32151;-76
2022/07/04 05:41:17;;;;;;;1.30;0.80;;;17.50;1.40;;;18.91;100.00;95689.88;646996;216;31634;-75
2022/07/04 05:44:05;;;;;;;0.80;0.60;;;17.70;1.40;;;19.05;100.00;95692.80;645761;216;32046;-75
2022/07/04 05:46:53;;;;;;;0.70;0.70;;;17.80;1.40;;;19.11;100.00;95708.69;649496;212;31525;-76
2022/07/04 05:49:37;;;;;;;1.77;1.08;;;17.80;1.40;;;19.07;100.00;95713.78;648248;212;31542;-75
2022/07/04 05:52:24;;;;;;;0.93;0.75;;;17.90;1.40;;;19.12;100.00;95716.36;620245;226;31902;-76
2022/07/04 05:55:09;;;;;;;1.10;1.10;;;17.90;1.40;;;19.00;100.00;95719.53;619692;222;31938;-74
2022/07/04 05:57:55;;;;;;;0.82;0.82;;;17.80;1.40;;;18.96;100.00;95710.34;649866;216;33636;-74
2022/07/04 06:00:39;;;;;;;0.70;0.70;;;17.90;1.40;;;19.02;100.00;95714.30;644505;216;31492;-74
2022/07/04 06:03:19;;;;;;;1.10;1.00;;;17.90;1.40;;;19.04;100.00;95710.73;647837;216;31502;-75
2022/07/04 06:06:00;;;;;;;2.00;1.00;;;17.90;1.40;;;19.01;100.00;95714.34;647439;216;31489;-74
2022/07/04 06:08:42;;;;;;;1.10;0.90;;;18.00;1.40;;;19.03;100.00;95709.07;648518;216;31733;-74
2022/07/04 06:11:24;;;;;;;1.10;1.00;;;18.20;1.40;;;19.15;100.00;95722.95;646705;216;31490;-74
2022/07/04 06:14:05;;;;;;;1.30;1.00;;;18.40;1.40;;;19.20;100.00;95730.88;648918;212;31480;-74
2022/07/04 06:16:50;;;;;;;1.70;0.70;;;18.50;1.40;;;19.25;100.00;95731.42;646000;216;31564;-74
2022/07/04 06:19:32;;;;;;;1.92;0.80;;;18.60;1.40;;;19.30;100.00;95732.55;647211;212;31497;-75
2022/07/04 06:22:13;;;;;;;1.50;1.00;;;18.60;1.40;;;19.32;100.00;95730.63;647021;216;31584;-74
2022/07/04 06:24:56;;;;;;;1.00;0.80;;;18.60;1.40;;;19.44;100.00;95731.50;645728;216;31779;-74
2022/07/04 06:27:38;;;;;;;2.20;1.00;;;18.60;1.40;;;19.50;100.00;95727.72;648560;216;31501;-74
2022/07/04 06:30:20;;;;;;;2.20;1.20;;;18.60;1.40;;;19.58;100.00;95726.96;644833;216;31537;-74
2022/07/04 06:35:58;;;;;;;0.90;0.73;;;18.70;1.40;;;19.50;100.00;95725.73;648604;216;42744;-74
2022/07/04 06:38:39;;;;;;;1.20;1.03;;;18.70;1.40;;;19.53;100.00;95722.59;646499;216;42137;-74
2022/07/04 06:41:21;;;;;;;1.50;1.40;;;18.70;1.40;;;19.61;100.00;95725.23;646693;216;31492;-72
2022/07/04 06:44:03;;;;;;;2.72;0.65;;;18.80;1.40;;;19.71;100.00;95730.59;648329;216;31699;-74
2022/07/04 06:46:51;;;;;;;1.00;0.80;;;18.70;1.40;;;19.59;100.00;95724.45;646467;216;32220;-77
2022/07/04 06:49:38;;;;;;;2.10;1.12;;;18.70;1.40;;;19.58;100.00;95730.38;646642;216;31540;-75
2022/07/04 06:52:20;;;;;;;1.98;1.10;;;18.70;1.40;;;19.59;100.00;95739.71;646014;212;32159;-76
2022/07/04 06:55:02;;;;;;;1.48;0.90;;;18.70;1.40;;;19.45;100.00;95754.03;647557;216;42183;-75
2022/07/04 06:57:44;;;;;;;0.93;0.85;;;18.70;1.40;;;19.33;100.00;95751.78;647177;216;31549;-75
2022/07/04 07:00:30;;;;;;;1.20;0.95;;;18.60;1.40;;;19.27;100.00;95742.57;648555;212;31702;-75
2022/07/04 07:03:10;;;;;;;1.02;0.80;;;18.50;1.40;;;19.16;100.00;95747.57;646135;216;31472;-75
2022/07/04 07:05:52;;;;;;;2.10;0.80;;;18.40;1.40;;;18.94;100.00;95751.39;646153;216;31878;-75
2022/07/04 07:08:36;;;;;;;1.95;0.98;;;18.20;1.40;;;18.82;100.00;95753.11;647129;212;31532;-75
2022/07/04 07:11:19;;;;;;;1.37;1.00;;;18.10;1.40;;;18.68;100.00;95748.15;618539;222;31853;-74
2022/07/04 07:14:02;;;;;;;0.70;0.65;;;17.90;1.40;;;18.51;100.00;95750.77;646736;212;31519;-76
2022/07/04 07:16:44;;;;;;;1.15;0.95;;;17.70;1.40;;;18.44;100.00;95743.42;647638;216;31455;-76
2022/07/04 07:19:31;;;;;;;1.10;0.77;;;17.60;1.40;;;18.48;100.00;95743.33;646831;212;31480;-75
2022/07/04 07:22:13;;;;;;;1.23;0.98;;;17.70;1.40;;;18.57;100.00;95744.41;645593;216;31573;-74
2022/07/04 07:24:54;;;;;;;1.40;0.80;;;17.70;1.40;;;18.61;100.00;95750.84;646057;215;31495;-75
2022/07/04 07:27:40;;;;;;;0.90;0.80;;;17.90;1.40;;;18.79;100.00;95745.43;646042;216;31491;-75
2022/07/04 07:30:21;;;;;;;0.80;0.70;;;18.00;1.40;;;19.02;100.00;95739.13;646303;216;31511;-75
2022/07/04 07:35:51;;;;;;;0.80;0.70;;;18.30;1.40;;;19.14;100.00;95734.71;646225;212;31885;-75
2022/07/04 07:38:32;;;;;;;1.02;0.80;;;18.40;1.40;;;19.31;100.00;95732.02;646982;216;31546;-75
2022/07/04 07:41:17;;;;;;;1.00;0.70;;;18.70;1.40;;;19.49;100.00;95717.94;619041;225;31868;-75
2022/07/04 07:44:05;;;;;;;1.00;0.90;;;18.90;1.40;;;19.72;100.00;95708.92;646951;212;31508;-75
2022/07/04 07:46:53;;;;;;;0.75;0.60;;;19.30;1.40;;;19.89;100.00;95710.25;646516;212;43222;-76
2022/07/04 07:49:40;;;;;;;1.48;1.10;;;19.30;1.40;;;20.11;100.00;95710.87;646962;216;31488;-75
2022/07/04 07:52:28;;;;;;;1.37;0.90;;;19.50;1.40;;;20.34;100.00;95720.81;642927;216;31649;-76
2022/07/04 07:55:12;;;;;;;1.73;0.90;;;19.70;1.40;;;20.93;100.00;95713.44;646323;212;42668;-76
2022/07/04 07:57:53;;;;;;;1.70;1.40;;;19.90;1.40;;;21.15;100.00;95718.16;647509;212;31896;-75
2022/07/04 08:00:38;;;;;;;1.00;0.80;;;20.20;1.40;;;21.24;100.00;95722.94;647238;216;31603;-75
2022/07/04 08:06:07;;;;;;;1.25;1.15;;;20.10;1.40;;;21.56;100.00;95722.80;619154;222;31856;-76
2022/07/04 08:08:50;;;;;;;1.40;1.10;;;20.20;1.40;;;21.44;100.00;95721.31;618302;222;31931;-74
2022/07/04 08:11:31;;;;;;;0.90;0.70;;;20.10;1.40;;;21.44;100.00;95710.34;646016;216;31606;-74
2022/07/04 08:14:13;;;;;;;0.60;0.60;;;20.30;1.40;;;21.69;100.00;95704.94;619536;222;31862;-74
2022/07/04 08:16:54;;;;;;;0.90;0.90;;;20.40;1.40;;;21.86;100.00;95703.97;647898;212;31823;-74
2022/07/04 08:19:36;;;;;;;0.80;0.70;;;20.60;1.40;;;21.74;100.00;95698.23;646767;216;31609;-75
2022/07/04 08:22:18;;;;;;;4.37;0.88;;;20.60;1.40;;;21.68;100.00;95696.55;619758;226;31827;-74
2022/07/04 08:25:02;;;;;;;0.88;0.70;;;20.70;1.40;;;21.75;100.00;95695.05;646434;216;32108;-76
2022/07/04 08:27:44;;;;;;;0.80;0.70;;;20.70;1.40;;;21.73;100.00;95689.67;646579;216;31642;-74
2022/07/04 08:30:26;;;;;;;0.80;0.80;;;20.80;1.40;;;22.23;100.00;95691.09;646945;216;31521;-75
2022/07/04 08:38:28;;;;;;;1.70;1.02;;;21.30;1.40;;;22.74;100.00;95689.42;647017;212;31770;-76
2022/07/04 08:41:09;;;;;;;0.90;0.70;;;21.70;1.40;;;22.76;100.00;95691.59;646900;212;31465;-75
2022/07/04 08:43:51;;;;;;;1.70;0.57;;;21.70;1.40;;;22.79;100.00;95680.11;645195;215;32249;-75
2022/07/04 08:46:33;;;;;;;1.02;0.80;;;21.80;1.40;;;23.11;100.00;95676.64;646697;212;31587;-76
2022/07/04 08:49:19;;;;;;;0.50;0.50;;;22.10;1.40;;;23.20;100.00;95677.52;647655;216;31616;-75
2022/07/04 08:52:03;;;;;;;0.68;0.60;;;21.90;1.40;;;23.03;100.00;95682.53;617754;226;31841;-75
2022/07/04 08:59:07;;;;;;;0.60;0.60;;;22.60;1.40;;;24.29;100.00;95671.69;646095;216;32147;-75
2022/07/04 09:01:48;;;;;;;0.70;0.60;;;23.50;1.40;;;24.57;100.00;95681.98;646578;212;31594;-75
2022/07/04 09:04:30;;;;;;;1.10;0.77;;;23.80;1.40;;;25.03;100.00;95682.48;647945;216;31569;-75
2022/07/04 09:07:12;;;;;;;1.00;0.62;;;24.10;1.40;;;25.25;100.00;95671.43;647308;212;31561;-75
2022/07/04 09:09:59;;;;;;;1.60;0.70;;;24.40;1.40;;;25.09;100.00;95675.95;646065;212;43346;-76
2022/07/04 09:12:47;;;;;;;1.15;0.73;;;23.70;1.40;;;25.16;100.00;95679.99;646202;216;31490;-75
2022/07/04 09:15:29;;;;;;;1.23;0.70;;;23.70;1.40;;;25.00;100.00;95679.75;646751;216;31788;-74
2022/07/04 09:18:28;;;;;;;0.67;0.60;;;23.70;1.40;;;25.49;100.00;95683.44;646922;216;32032;-75
2022/07/04 09:21:10;;;;;;;2.40;0.80;;;24.20;1.40;;;25.77;98.71;95692.42;647550;212;31550;-76
2022/07/04 09:23:51;;;;;;;1.98;0.98;;;24.30;1.40;;;25.85;100.00;95697.30;646086;216;31510;-75
2022/07/04 09:26:33;;;;;;;1.50;0.80;;;24.50;1.40;;;26.11;100.00;95686.77;646447;212;31816;-76
2022/07/04 09:29:16;;;;;;;1.00;0.75;;;25.10;1.40;;;26.14;96.93;95684.28;647221;216;31918;-76
2022/07/04 09:31:58;;;;;;;2.70;0.80;;;24.80;1.40;;;27.31;92.37;95687.35;618521;222;32337;-75
2022/07/04 09:35:52;;;;;;;0.80;0.70;;;27.70;1.40;;;27.81;83.62;95690.64;647731;216;31528;-75
2022/07/04 09:38:33;;;;;;;0.80;0.80;;;26.80;1.40;;;29.03;85.02;95686.13;646182;212;31548;-76
2022/07/04 09:44:04;;;;;;;1.10;0.85;;;26.20;1.40;;;27.66;89.63;95695.57;646770;212;31494;-76
2022/07/04 09:46:46;;;;;;;1.98;1.20;;;26.90;1.40;;;28.53;84.01;95690.28;646411;215;31488;-76
2022/07/04 09:49:28;;;;;;;1.02;0.90;;;28.30;1.40;;;29.24;82.69;95686.73;646290;212;32043;-76
2022/07/04 09:52:10;;;;;;;1.30;0.90;;;29.30;1.40;;;30.05;79.10;95686.89;646587;212;31511;-76
2022/07/04 09:54:52;;;;;;;1.20;0.80;;;29.10;1.40;;;29.43;75.86;95680.16;645610;216;31476;-76
2022/07/04 09:57:33;;;;;;;1.10;1.00;;;28.30;1.40;;;29.46;79.05;95685.30;647578;212;31521;-76
2022/07/04 10:02:53;;;;;;;1.10;0.77;;;26.40;1.40;;;28.81;78.12;95687.48;646462;216;31504;-76
2022/07/04 10:05:35;;;;;;;1.20;0.80;;;26.40;1.40;;;27.58;80.61;95693.80;647046;216;31893;-75
2022/07/04 10:08:17;;;;;;;0.98;0.88;;;25.10;1.40;;;27.50;86.14;95688.77;647099;216;32491;-75
2022/07/04 10:11:00;;;;;;;1.10;0.80;;;25.10;1.40;;;27.16;88.65;95685.30;647178;216;31654;-76
2022/07/04 10:13:41;;;;;;;1.10;0.70;;;25.10;1.40;;;27.40;82.50;95686.44;646473;216;31485;-75
2022/07/04 10:16:29;;;;;;;1.80;0.90;;;25.10;1.40;;;27.49;84.87;95687.89;646905;216;31508;-76
2022/07/04 10:19:17;;;;;;;1.10;1.00;;;25.30;1.40;;;26.61;87.34;95684.70;646478;216;31524;-75
2022/07/04 10:21:58;;;;;;;1.05;0.95;;;24.20;1.40;;;26.13;94.13;95694.52;646300;216;31747;-76
2022/07/04 10:24:40;;;;;;;0.70;0.60;;;24.30;1.40;;;26.46;91.05;95688.95;646271;216;31503;-75
2022/07/04 10:27:22;;;;;;;1.90;1.30;;;24.80;1.40;;;26.58;89.90;95695.73;647957;216;31476;-75
2022/07/04 10:30:04;;;;;;;1.00;0.80;;;24.50;1.40;;;26.59;90.45;95697.38;647618;216;31466;-75
2022/07/04 10:32:46;;;;;;;0.90;0.62;;;24.70;1.40;;;26.30;91.38;95701.84;617841;226;32010;-74
2022/07/04 10:36:05;;;;;;;0.90;0.90;;;24.80;1.40;;;26.46;91.46;95698.13;619779;222;35476;-76
2022/07/04 10:38:54;;;;;;;2.53;1.30;;;24.90;1.40;;;26.88;89.29;95695.48;646707;216;42789;-76
2022/07/04 10:41:42;;;;;;;1.10;0.70;;;25.10;1.40;;;26.72;87.50;95695.75;619108;226;42675;-75
2022/07/04 10:44:26;;;;;;;2.83;1.20;;;24.70;1.40;;;27.15;87.05;95692.72;647725;216;31496;-74
2022/07/04 10:47:06;;;;;;;1.90;0.90;;;25.30;1.40;;;26.58;89.04;95691.30;646863;216;42137;-76
2022/07/04 10:49:48;;;;;;;1.20;1.10;;;25.10;1.40;;;26.69;91.73;95693.16;646361;216;31535;-76
2022/07/04 10:52:36;;;;;;;1.00;0.90;;;25.30;1.40;;;27.12;85.16;95696.15;642146;212;42317;-77
2022/07/04 10:55:23;;;;;;;0.70;0.62;;;24.80;1.40;;;27.20;89.19;95696.17;647601;216;33478;-75
2022/07/04 10:58:05;;;;;;;2.30;1.10;;;25.10;1.40;;;27.39;88.41;95690.78;646910;216;31521;-75
2022/07/04 11:03:47;;;;;;;2.00;0.90;;;25.70;1.40;;;27.37;87.84;95694.48;647142;216;32431;-76
2022/07/04 11:09:24;;;;;;;1.30;0.80;;;25.30;1.40;;;26.50;88.34;95685.34;647775;216;31536;-76
2022/07/04 11:12:06;;;;;;;1.45;1.00;;;25.20;1.40;;;26.50;86.39;95678.23;646539;212;31533;-75
2022/07/04 11:14:50;;;;;;;1.10;1.00;;;25.00;1.40;;;27.23;86.35;95675.06;619504;226;32153;-74
2022/07/04 11:17:33;;;;;;;1.10;1.00;;;25.50;1.40;;;28.06;84.27;95667.16;647619;212;31591;-75
2022/07/04 11:20:14;;;;;;;0.70;0.70;;;26.00;1.40;;;29.14;79.47;95662.18;646376;212;31776;-75
2022/07/04 11:23:06;;;;;;;1.15;0.80;;;27.50;1.40;;;29.16;75.09;95664.78;646945;212;31621;-75
2022/07/04 11:25:50;;;;;;;1.00;0.77;;;27.20;1.40;;;28.98;74.93;95665.03;619990;226;31833;-75
2022/07/04 11:28:33;;;;;;;1.20;1.10;;;26.60;1.40;;;28.10;80.66;95666.71;645853;216;31549;-76
2022/07/04 11:31:12;;;;;;;2.75;0.70;;;25.70;1.40;;;27.73;80.72;95662.63;646034;216;31763;-75
2022/07/04 11:36:03;;;;;;;1.20;0.90;;;25.90;1.40;;;28.63;78.77;95650.20;646230;216;31521;-75
2022/07/04 11:38:53;;;;;;;1.10;1.00;;;26.50;1.40;;;30.00;74.14;95647.05;618417;222;31801;-75
2022/07/04 11:47:18;;;;;;;0.80;0.73;;;27.00;1.40;;;30.69;70.57;95637.53;647355;216;31687;-74
2022/07/04 11:49:59;;;;;;;0.80;0.80;;;28.60;1.40;;;30.88;68.75;95635.46;619657;226;31931;-76
2022/07/04 11:52:41;;;;;;;1.00;0.90;;;28.50;1.40;;;30.67;66.48;95630.20;629606;222;32125;-75
2022/07/04 11:55:23;;;;;;;1.60;1.20;;;27.70;1.40;;;29.87;66.70;95635.52;618680;226;31972;-75
2022/07/04 11:58:05;;;;;;;1.40;0.90;;;27.10;1.40;;;28.85;72.07;95636.38;647762;216;31530;-75
2022/07/04 12:00:46;;;;;;;1.00;0.80;;;26.90;1.40;;;28.81;73.83;95639.31;648393;216;31534;-74
2022/07/04 12:03:28;;;;;;;1.65;0.93;;;27.10;1.40;;;29.76;70.61;95639.84;640680;216;31538;-75
2022/07/04 12:06:10;;;;;;;1.00;0.75;;;27.30;1.40;;;30.09;68.76;95636.53;646573;216;31504;-75
2022/07/04 12:08:52;;;;;;;1.30;1.20;;;27.90;1.40;;;31.67;62.49;95631.94;647246;212;31539;-76
2022/07/04 12:11:51;;;;;;;1.40;1.25;;;28.40;1.40;;;32.72;60.03;95627.73;647253;216;31620;-74
2022/07/04 12:14:33;;;;;;;1.30;1.20;;;29.10;1.40;;;33.54;59.24;95623.95;645944;216;42355;-74
2022/07/04 12:17:16;;;;;;;1.20;0.80;;;28.80;1.40;;;31.54;60.70;95626.52;646164;212;31508;-74
2022/07/04 12:19:58;;;;;;;2.00;1.20;;;28.30;1.40;;;31.14;62.49;95615.39;646620;212;31540;-74
2022/07/04 12:22:42;;;;;;;1.52;0.80;;;27.70;1.40;;;31.51;63.79;95611.75;642236;215;31594;-75
2022/07/04 12:25:28;;;;;;;0.60;0.60;;;28.00;1.40;;;31.28;63.73;95610.34;618970;226;32509;-74
2022/07/04 12:28:10;;;;;;;1.10;1.00;;;28.50;1.40;;;31.75;61.88;95603.69;647176;216;31545;-75